createdAt,value
2022-12-22T00:03:15.194Z,91.42
2022-12-22T00:08:38.788Z,96.13
2022-12-22T00:14:02.589Z,96.67
2022-12-22T00:19:31.350Z,96.42
2022-12-22T00:24:54.899Z,99.37
2022-12-22T00:30:16.874Z,100.00
2022-12-22T00:35:41.566Z,99.13
2022-12-22T00:41:05.009Z,99.44
2022-12-22T00:46:31.021Z,99.51
2022-12-22T00:51:53.113Z,100.00
2022-12-22T00:57:18.362Z,100.00
2022-12-22T01:02:41.234Z,100.00
2022-12-22T01:08:03.574Z,100.00
2022-12-22T01:13:29.610Z,100.00
2022-12-22T01:18:51.413Z,100.00
2022-12-22T01:24:13.384Z,100.00
2022-12-22T01:29:36.710Z,100.00
2022-12-22T01:34:59.040Z,100.00
2022-12-22T01:40:21.075Z,100.00
2022-12-22T01:45:47.093Z,100.00
2022-12-22T01:51:08.979Z,100.00
2022-12-22T01:56:31.022Z,100.00
2022-12-22T02:01:55.499Z,100.00
2022-12-22T02:07:25.979Z,100.00
2022-12-22T02:12:55.639Z,100.00
2022-12-22T02:18:26.980Z,100.00
2022-12-22T02:24:04.803Z,100.00
2022-12-22T02:29:29.511Z,100.00
2022-12-22T02:34:51.141Z,100.00
2022-12-22T02:40:18.638Z,100.00
2022-12-22T02:45:49.334Z,100.00
2022-12-22T02:51:19.588Z,100.00
2022-12-22T02:56:43.685Z,100.00
2022-12-22T03:02:07.558Z,100.00
2022-12-22T03:07:29.530Z,100.00
2022-12-22T03:12:51.475Z,100.00
2022-12-22T03:18:20.000Z,100.00
2022-12-22T03:23:42.053Z,100.00
2022-12-22T03:28:48.042Z,100.00
2022-12-22T03:33:54.028Z,100.00
2022-12-22T03:38:58.681Z,100.00
2022-12-22T03:44:20.391Z,100.00
2022-12-22T03:49:26.446Z,100.00
2022-12-22T03:54:31.472Z,100.00
2022-12-22T03:59:36.098Z,100.00
2022-12-22T04:04:42.269Z,100.00
2022-12-22T04:10:09.881Z,100.00
2022-12-22T04:15:14.551Z,100.00
2022-12-22T04:20:22.350Z,100.00
2022-12-22T04:25:29.730Z,100.00
2022-12-22T04:30:34.532Z,100.00
2022-12-22T04:35:40.550Z,100.00
2022-12-22T04:40:45.553Z,100.00
2022-12-22T04:45:53.995Z,100.00
2022-12-22T04:51:01.686Z,100.00
2022-12-22T04:56:08.499Z,100.00
2022-12-22T05:01:15.259Z,100.00
2022-12-22T05:06:22.561Z,100.00
2022-12-22T05:11:27.238Z,100.00
2022-12-22T05:16:31.878Z,100.00
2022-12-22T05:21:37.917Z,100.00
2022-12-22T05:26:49.401Z,100.00
2022-12-22T05:31:53.942Z,100.00
2022-12-22T05:37:00.598Z,100.00
2022-12-22T05:42:06.414Z,100.00
2022-12-22T05:47:10.920Z,100.00
2022-12-22T05:52:17.005Z,100.00
2022-12-22T05:57:21.593Z,100.00
2022-12-22T06:02:26.386Z,100.00
2022-12-22T06:07:32.513Z,100.00
2022-12-22T06:12:38.289Z,100.00
2022-12-22T06:17:45.103Z,100.00
2022-12-22T06:22:51.849Z,100.00
2022-12-22T06:27:55.937Z,100.00
2022-12-22T06:33:04.305Z,100.00
2022-12-22T06:38:13.282Z,100.00
2022-12-22T06:43:21.216Z,100.00
2022-12-22T06:48:28.799Z,100.00
2022-12-22T06:53:37.314Z,100.00
2022-12-22T06:58:44.790Z,100.00
2022-12-22T07:03:53.110Z,100.00
2022-12-22T07:09:00.234Z,100.00
2022-12-22T07:14:04.867Z,100.00
2022-12-22T07:19:09.415Z,100.00
2022-12-22T07:24:23.257Z,100.00
2022-12-22T07:29:27.854Z,100.00
2022-12-22T07:34:32.389Z,100.00
2022-12-22T07:39:38.347Z,100.00
2022-12-22T07:44:46.377Z,100.00
2022-12-22T07:50:08.225Z,100.00
2022-12-22T07:55:14.338Z,100.00
2022-12-22T08:00:20.331Z,100.00
2022-12-22T08:05:27.690Z,100.00
2022-12-22T08:10:33.819Z,100.00
2022-12-22T08:15:38.661Z,100.00
2022-12-22T08:20:49.507Z,100.00
2022-12-22T08:26:00.837Z,100.00
2022-12-22T08:31:06.002Z,100.00
2022-12-22T08:36:11.617Z,100.00
2022-12-22T08:41:39.554Z,100.00
2022-12-22T08:46:44.337Z,100.00
2022-12-22T08:51:49.578Z,100.00
2022-12-22T08:57:03.266Z,100.00
2022-12-22T09:02:09.627Z,100.00
2022-12-22T09:07:14.216Z,100.00
2022-12-22T09:12:20.628Z,100.00
2022-12-22T09:17:25.121Z,100.00
2022-12-22T09:22:29.794Z,100.00
2022-12-22T09:27:35.901Z,100.00
2022-12-22T09:32:40.281Z,100.00
2022-12-22T09:37:47.730Z,100.00
2022-12-22T09:42:53.782Z,100.00
2022-12-22T09:47:58.520Z,100.00
2022-12-22T09:53:05.211Z,98.83
2022-12-22T09:58:25.996Z,95.58
2022-12-22T10:03:43.134Z,100.00
2022-12-22T10:08:48.921Z,98.77
2022-12-22T10:13:54.624Z,93.26
2022-12-22T10:19:02.374Z,93.44
2022-12-22T10:24:17.701Z,96.24
2022-12-22T10:29:24.104Z,100.00
2022-12-22T10:34:29.062Z,100.00
2022-12-22T10:39:35.897Z,100.00
2022-12-22T10:44:47.161Z,100.00
2022-12-22T10:55:16.963Z,100.00
2022-12-22T11:00:28.973Z,100.00
2022-12-22T11:05:35.095Z,100.00
2022-12-22T11:10:49.151Z,100.00
2022-12-22T11:16:01.651Z,100.00
2022-12-22T11:21:21.989Z,100.00
2022-12-22T11:26:43.286Z,93.57
2022-12-22T11:32:02.351Z,93.03
2022-12-22T11:37:29.485Z,88.67
2022-12-22T11:42:50.489Z,88.25
2022-12-22T11:48:02.911Z,85.44
2022-12-22T11:53:20.641Z,85.44
2022-12-22T11:58:43.642Z,82.03
2022-12-22T12:04:20.498Z,82.32
2022-12-22T12:09:41.859Z,81.71
2022-12-22T12:14:55.531Z,80.22
2022-12-22T12:20:12.993Z,79.78
2022-12-22T12:25:30.102Z,84.81
2022-12-22T12:30:42.645Z,88.16
2022-12-22T12:35:57.597Z,92.41
2022-12-22T12:41:11.888Z,94.70
2022-12-22T12:46:55.491Z,93.58
2022-12-22T12:52:01.646Z,93.27
2022-12-22T12:57:24.261Z,98.29
2022-12-22T13:02:40.172Z,99.63
2022-12-22T13:08:15.521Z,96.31
2022-12-22T13:13:49.849Z,96.68
2022-12-22T13:18:58.594Z,98.57
2022-12-22T13:24:23.959Z,100.00
2022-12-22T13:29:42.836Z,100.00
2022-12-22T13:35:30.389Z,100.00
2022-12-22T13:40:20.628Z,100.00
2022-12-22T13:45:36.109Z,100.00
2022-12-22T13:50:45.220Z,100.00
2022-12-22T13:55:50.129Z,100.00
2022-12-22T14:01:17.216Z,100.00
2022-12-22T14:06:33.757Z,100.00
2022-12-22T14:11:38.108Z,100.00
2022-12-22T14:16:47.207Z,100.00
2022-12-22T14:22:00.964Z,100.00
2022-12-22T14:27:05.615Z,100.00
2022-12-22T14:32:14.091Z,100.00
2022-12-22T14:37:32.189Z,100.00
2022-12-22T14:42:37.052Z,100.00
2022-12-22T14:47:42.985Z,100.00
2022-12-22T14:52:51.170Z,100.00
2022-12-22T14:57:58.845Z,100.00
2022-12-22T15:03:08.227Z,100.00
2022-12-22T15:08:38.693Z,100.00
2022-12-22T15:13:44.459Z,100.00
2022-12-22T15:18:51.053Z,100.00
2022-12-22T15:23:55.357Z,98.72
2022-12-22T15:29:00.941Z,95.65
2022-12-22T15:34:14.539Z,97.77
2022-12-22T15:39:20.375Z,96.96
2022-12-22T15:44:25.206Z,98.04
2022-12-22T15:49:35.021Z,99.30
2022-12-22T15:54:39.565Z,97.67
2022-12-22T15:59:43.991Z,98.92
2022-12-22T16:04:49.854Z,98.68
2022-12-22T16:09:53.894Z,100.00
2022-12-22T16:15:00.884Z,99.83
2022-12-22T16:20:08.269Z,100.00
2022-12-22T16:25:15.904Z,100.00
2022-12-22T16:30:22.954Z,100.00
2022-12-22T16:35:32.961Z,100.00
2022-12-22T16:40:45.406Z,100.00
2022-12-22T16:45:51.191Z,100.00
2022-12-22T16:50:57.333Z,100.00
2022-12-22T16:56:02.049Z,100.00
2022-12-22T17:01:07.173Z,100.00
2022-12-22T17:06:13.585Z,100.00
2022-12-22T17:11:22.672Z,100.00
2022-12-22T17:16:27.258Z,100.00
2022-12-22T17:21:34.607Z,100.00
2022-12-22T17:26:39.326Z,100.00
2022-12-22T17:31:43.936Z,100.00
2022-12-22T17:36:51.224Z,100.00
2022-12-22T17:48:42.364Z,100.00
2022-12-22T17:53:56.563Z,100.00
2022-12-22T17:59:03.673Z,100.00
2022-12-22T18:10:28.924Z,100.00
2022-12-22T18:15:36.063Z,100.00
2022-12-22T18:20:42.316Z,100.00
2022-12-22T18:25:48.647Z,100.00
2022-12-22T18:30:55.260Z,100.00
2022-12-22T18:36:01.375Z,100.00
2022-12-22T18:41:10.140Z,100.00
2022-12-22T18:46:14.697Z,100.00
2022-12-22T18:51:26.083Z,100.00
2022-12-22T18:56:35.193Z,100.00
2022-12-22T19:01:53.962Z,100.00
2022-12-22T19:07:06.992Z,100.00
2022-12-22T19:12:15.259Z,100.00
2022-12-22T19:17:27.462Z,100.00
2022-12-22T19:22:32.579Z,100.00
2022-12-22T19:27:49.267Z,100.00
2022-12-22T19:33:01.511Z,100.00
2022-12-22T19:38:19.899Z,100.00
2022-12-22T19:43:26.084Z,100.00
2022-12-22T19:48:30.629Z,100.00
2022-12-22T19:53:35.184Z,100.00
2022-12-22T19:58:42.055Z,100.00
2022-12-22T20:03:46.635Z,100.00
2022-12-22T20:08:51.198Z,100.00
2022-12-22T20:13:57.489Z,100.00
2022-12-22T20:19:01.979Z,100.00
2022-12-22T20:24:08.205Z,100.00
2022-12-22T20:29:14.618Z,100.00
2022-12-22T20:34:19.073Z,100.00
2022-12-22T20:39:23.688Z,100.00
2022-12-22T20:44:29.681Z,100.00
2022-12-22T20:49:34.664Z,100.00
2022-12-22T20:54:39.199Z,100.00
2022-12-22T20:59:51.966Z,100.00
2022-12-22T21:05:00.056Z,100.00
2022-12-22T21:10:05.095Z,100.00
2022-12-22T21:15:17.581Z,100.00
2022-12-22T21:20:25.304Z,100.00
2022-12-22T21:25:30.157Z,100.00
2022-12-22T21:30:36.203Z,100.00
2022-12-22T21:35:40.844Z,100.00
2022-12-22T21:40:47.003Z,100.00
2022-12-22T21:45:53.198Z,100.00
2022-12-22T21:50:57.674Z,100.00
2022-12-22T21:56:03.810Z,100.00
2022-12-22T22:01:14.646Z,100.00
2022-12-22T22:06:19.365Z,100.00
2022-12-22T22:11:25.454Z,100.00
2022-12-22T22:16:31.525Z,100.00
2022-12-22T22:21:36.215Z,100.00
2022-12-22T22:26:40.948Z,100.00
2022-12-22T22:31:46.953Z,100.00
2022-12-22T22:36:52.511Z,100.00
2022-12-22T22:41:57.038Z,100.00
2022-12-22T22:47:03.130Z,100.00
2022-12-22T22:52:07.720Z,100.00
2022-12-22T22:57:12.146Z,100.00
2022-12-22T23:02:18.085Z,100.00
2022-12-22T23:07:22.600Z,100.00
2022-12-22T23:12:27.025Z,100.00
2022-12-22T23:17:33.086Z,100.00
2022-12-22T23:22:38.231Z,100.00
2022-12-22T23:27:42.752Z,100.00
2022-12-22T23:32:50.888Z,100.00
2022-12-22T23:37:55.466Z,100.00
2022-12-22T23:43:01.413Z,100.00
2022-12-22T23:48:07.940Z,100.00
2022-12-22T23:53:12.730Z,100.00
2022-12-22T23:58:18.470Z,100.00
